Time;durP1;ratioP1;P1;durP2;ratioP2;P2;SDS_P1;SDS_P2;PMS_P1;PMS_P2;Temp;Humidity;BMP_temperature;BMP_pressure;BME280_temperature;BME280_humidity;BME280_pressure;Samples;Min_cycle;Max_cycle;Signal;HPM_P1;HPM_P2
2023/07/10 00:01:29;;;;;;;3.90;3.10;;;;;;;17.61;58.63;98311.31;106608;1278;22731;-75
2023/07/10 00:03:56;;;;;;;3.40;2.80;;;;;;;17.63;58.52;98314.50;106599;1278;22547;-75
2023/07/10 00:06:23;;;;;;;4.50;3.00;;;;;;;17.64;58.27;98316.55;106569;1277;25315;-75
2023/07/10 00:08:50;;;;;;;3.80;2.70;;;;;;;17.65;58.19;98314.65;106563;1277;22535;-76
2023/07/10 00:11:22;;;;;;;3.00;2.40;;;;;;;17.65;58.16;98313.17;106689;1278;22643;-75
2023/07/10 00:13:49;;;;;;;3.30;2.80;;;;;;;17.65;58.03;98315.29;106608;1278;24235;-75
2023/07/10 00:16:21;;;;;;;4.00;2.60;;;;;;;17.66;58.07;98313.27;106775;1278;26538;-75
2023/07/10 00:18:49;;;;;;;3.90;3.10;;;;;;;17.65;57.86;98311.06;106693;1277;22555;-75
2023/07/10 00:21:17;;;;;;;4.90;3.10;;;;;;;17.67;57.85;98311.20;106720;1278;24375;-75
2023/07/10 00:23:45;;;;;;;4.50;3.10;;;;;;;17.70;57.67;98314.33;106609;1278;24680;-75
2023/07/10 00:26:22;;;;;;;3.40;2.70;;;;;;;17.71;57.52;98319.46;106571;1277;22530;-75
2023/07/10 00:28:55;;;;;;;4.60;3.30;;;;;;;17.75;57.53;98311.94;106587;1278;22526;-76
2023/07/10 00:31:24;;;;;;;4.20;3.20;;;;;;;17.76;57.31;98309.00;106603;1277;24283;-76
2023/07/10 00:33:52;;;;;;;3.80;3.20;;;;;;;17.76;57.23;98311.66;106643;1277;23029;-76
2023/07/10 00:36:31;;;;;;;6.20;3.70;;;;;;;17.77;57.17;98315.67;106570;1278;22784;-74
2023/07/10 00:39:20;;;;;;;5.80;3.50;;;;;;;17.74;57.09;98311.61;106713;1277;22921;-75
2023/07/10 00:41:55;;;;;;;4.30;3.10;;;;;;;17.71;56.92;98306.22;106696;1278;22543;-74
2023/07/10 00:44:31;;;;;;;8.60;3.30;;;;;;;17.69;56.94;98302.27;106718;1278;22563;-76
2023/07/10 00:47:03;;;;;;;5.30;3.50;;;;;;;17.67;56.81;98300.55;106746;1278;22530;-75
2023/07/10 00:49:53;;;;;;;4.10;3.00;;;;;;;17.65;56.88;98302.72;106720;1277;22546;-75
2023/07/10 00:52:24;;;;;;;3.70;3.00;;;;;;;17.60;56.72;98303.27;106548;1278;22615;-75
2023/07/10 00:54:54;;;;;;;4.20;3.10;;;;;;;17.56;56.84;98299.83;106681;1277;22530;-75
2023/07/10 00:57:33;;;;;;;4.60;2.70;;;;;;;17.53;56.68;98299.80;106577;1278;22682;-75
2023/07/10 01:00:14;;;;;;;5.40;3.00;;;;;;;17.46;56.70;98300.65;106824;1278;22558;-75
2023/07/10 01:02:40;;;;;;;5.10;3.20;;;;;;;17.44;56.72;98303.14;106736;1278;22622;-75
2023/07/10 01:05:08;;;;;;;4.70;2.90;;;;;;;17.41;56.66;98298.20;106719;1277;22535;-75
2023/07/10 01:07:57;;;;;;;5.20;3.00;;;;;;;17.38;56.72;98294.38;106566;1278;23239;-75
2023/07/10 01:10:24;;;;;;;6.80;3.80;;;;;;;17.36;56.67;98292.41;106555;1278;25278;-75
2023/07/10 01:12:51;;;;;;;3.30;2.80;;;;;;;17.35;56.71;98286.62;106595;1278;22530;-75
2023/07/10 01:15:18;;;;;;;7.10;3.10;;;;;;;17.34;56.70;98282.31;106574;1255;22542;-75
2023/07/10 01:17:46;;;;;;;5.10;2.90;;;;;;;17.33;56.72;98288.40;106599;1278;22546;-75
2023/07/10 01:20:33;;;;;;;5.00;3.20;;;;;;;17.30;56.67;98284.19;106552;1278;22659;-75
2023/07/10 01:23:01;;;;;;;3.60;2.70;;;;;;;17.29;56.59;98281.67;106472;1278;22540;-74
2023/07/10 01:25:33;;;;;;;7.10;3.60;;;;;;;17.28;56.53;98285.27;106462;1278;23916;-76
2023/07/10 01:28:09;;;;;;;3.10;2.80;;;;;;;17.25;56.65;98288.91;106594;1278;22533;-75
2023/07/10 01:30:39;;;;;;;5.30;3.40;;;;;;;17.23;56.57;98284.41;106535;1278;23469;-75
2023/07/10 01:33:13;;;;;;;3.60;3.10;;;;;;;17.20;56.53;98282.29;106590;1278;22594;-75
2023/07/10 01:35:42;;;;;;;7.20;3.10;;;;;;;17.16;56.55;98278.79;106493;1278;24206;-75
2023/07/10 01:38:13;;;;;;;4.60;3.20;;;;;;;17.09;56.53;98280.99;106686;1278;22654;-76
2023/07/10 01:40:43;;;;;;;4.30;3.20;;;;;;;16.98;56.69;98281.77;106683;1277;24364;-76
2023/07/10 01:43:10;;;;;;;4.10;3.10;;;;;;;16.90;56.83;98283.73;106694;1277;22674;-76
2023/07/10 01:45:46;;;;;;;4.40;3.50;;;;;;;16.83;56.91;98288.64;106625;1278;25393;-75
2023/07/10 01:48:13;;;;;;;4.20;3.30;;;;;;;16.75;57.05;98285.08;106755;1278;22668;-75
2023/07/10 01:50:44;;;;;;;5.40;3.50;;;;;;;16.69;57.27;98283.05;106625;1277;22534;-76
2023/07/10 01:53:10;;;;;;;4.20;3.30;;;;;;;16.63;57.30;98274.64;106587;1278;22643;-75
2023/07/10 01:55:44;;;;;;;6.50;3.40;;;;;;;16.59;57.44;98276.34;106676;1278;22593;-75
2023/07/10 01:58:12;;;;;;;4.10;3.30;;;;;;;16.48;57.74;98276.87;106524;1278;25278;-75
2023/07/10 02:00:40;;;;;;;4.90;3.40;;;;;;;16.43;57.73;98269.63;106715;1278;24289;-75
2023/07/10 02:03:07;;;;;;;5.90;3.40;;;;;;;16.38;57.96;98271.70;106698;1278;25489;-75
2023/07/10 02:05:34;;;;;;;5.60;3.20;;;;;;;16.33;58.16;98267.15;106491;1277;22570;-75
2023/07/10 02:08:01;;;;;;;4.60;3.30;;;;;;;16.27;58.23;98265.20;106706;1278;22695;-75
2023/07/10 02:10:30;;;;;;;4.20;3.30;;;;;;;16.23;58.46;98260.33;106688;1278;22524;-76
2023/07/10 02:13:12;;;;;;;4.00;3.10;;;;;;;16.23;58.91;98256.64;106565;1275;22632;-76
2023/07/10 02:15:40;;;;;;;6.00;3.70;;;;;;;16.25;58.97;98256.05;106660;1278;25338;-74
2023/07/10 02:18:06;;;;;;;5.80;3.80;;;;;;;16.28;59.09;98252.05;106452;1277;22530;-75
2023/07/10 02:20:33;;;;;;;6.20;3.70;;;;;;;16.30;59.23;98254.70;106574;1277;22580;-75
2023/07/10 02:23:00;;;;;;;5.70;4.10;;;;;;;16.31;59.17;98250.61;106630;1278;22534;-75
2023/07/10 02:25:27;;;;;;;5.20;3.50;;;;;;;16.33;59.22;98253.48;106546;1277;22624;-76
2023/07/10 02:27:53;;;;;;;4.80;3.20;;;;;;;16.33;59.32;98251.34;106623;1277;25224;-75
2023/07/10 02:30:20;;;;;;;7.30;3.40;;;;;;;16.34;59.42;98248.46;106633;1278;25499;-75
2023/07/10 02:32:47;;;;;;;4.30;3.60;;;;;;;16.32;59.64;98244.35;106752;1278;26628;-75
2023/07/10 02:35:13;;;;;;;4.80;3.50;;;;;;;16.30;59.58;98241.87;106674;1278;23422;-75
2023/07/10 02:37:40;;;;;;;5.60;3.70;;;;;;;16.29;59.61;98240.96;106602;1277;25396;-74
2023/07/10 02:40:07;;;;;;;5.10;3.40;;;;;;;16.29;59.88;98239.01;106556;1275;22533;-76
2023/07/10 02:42:34;;;;;;;4.80;3.60;;;;;;;16.29;59.85;98242.31;106697;1278;22525;-75
2023/07/10 02:45:02;;;;;;;4.70;3.50;;;;;;;16.33;59.93;98246.72;106696;1278;25415;-76
2023/07/10 02:47:28;;;;;;;6.60;3.60;;;;;;;16.35;59.88;98249.88;106712;1278;22514;-75
2023/07/10 02:49:55;;;;;;;5.10;3.60;;;;;;;16.36;60.21;98253.77;106458;1278;25236;-75
2023/07/10 02:52:21;;;;;;;5.70;3.80;;;;;;;16.36;60.02;98254.92;106482;1278;22541;-76
2023/07/10 02:54:48;;;;;;;3.80;3.40;;;;;;;16.34;59.97;98255.80;106579;1278;25360;-76
2023/07/10 02:57:15;;;;;;;6.00;3.50;;;;;;;16.29;59.82;98257.38;106599;1277;25409;-75
2023/07/10 02:59:41;;;;;;;5.90;3.80;;;;;;;16.23;60.03;98258.62;106593;1277;22535;-76
2023/07/10 03:02:08;;;;;;;7.80;3.50;;;;;;;16.17;60.07;98255.42;106633;1278;22614;-74
2023/07/10 03:04:35;;;;;;;5.50;3.30;;;;;;;16.09;60.14;98257.08;106412;1278;22548;-75
2023/07/10 03:07:01;;;;;;;6.00;3.60;;;;;;;16.01;60.34;98259.36;106522;1278;25332;-76
2023/07/10 03:09:30;;;;;;;5.90;3.90;;;;;;;15.97;60.42;98258.96;106689;1278;25464;-75
2023/07/10 03:11:58;;;;;;;5.90;3.60;;;;;;;15.99;60.49;98258.49;106593;1278;22535;-75
2023/07/10 03:14:25;;;;;;;4.90;3.70;;;;;;;16.01;60.56;98264.31;106498;1278;22538;-75
2023/07/10 03:16:52;;;;;;;4.90;3.50;;;;;;;16.03;60.56;98262.44;106581;1278;24554;-75
2023/07/10 03:19:19;;;;;;;4.40;3.50;;;;;;;16.06;60.75;98264.58;106562;1278;22538;-75
2023/07/10 03:21:46;;;;;;;5.50;3.40;;;;;;;16.09;60.75;98262.46;106554;1278;22551;-76
2023/07/10 03:24:12;;;;;;;4.80;3.50;;;;;;;16.10;60.73;98264.98;106584;1278;24347;-76
2023/07/10 03:26:39;;;;;;;4.30;3.70;;;;;;;16.07;60.73;98262.37;106559;1266;23003;-76
2023/07/10 03:29:13;;;;;;;4.50;3.50;;;;;;;16.01;60.95;98267.13;106696;1278;22536;-76
2023/07/10 03:31:40;;;;;;;;;;;;;;;15.94;61.10;98268.04;106693;1278;22519;-75
2023/07/10 03:34:07;;;;;;;5.00;4.20;;;;;;;15.87;61.16;98268.00;106707;1278;22527;-75
2023/07/10 03:36:34;;;;;;;6.60;4.30;;;;;;;15.80;61.38;98267.73;106745;1277;24180;-75
2023/07/10 03:39:00;;;;;;;4.80;3.50;;;;;;;15.77;61.93;98265.02;106690;1278;22529;-75
2023/07/10 03:41:27;;;;;;;6.20;4.10;;;;;;;15.76;62.13;98266.39;106684;1278;24247;-77
2023/07/10 03:43:54;;;;;;;8.00;4.50;;;;;;;15.79;62.26;98263.27;106777;1278;22621;-76
2023/07/10 03:46:22;;;;;;;5.30;4.30;;;;;;;15.83;62.41;98264.04;106512;1278;25473;-76
2023/07/10 03:48:48;;;;;;;8.10;4.70;;;;;;;15.86;62.92;98262.60;106555;1278;22541;-77
2023/07/10 03:51:16;;;;;;;6.90;4.30;;;;;;;15.86;62.89;98263.08;106595;1278;22791;-77
2023/07/10 03:53:42;;;;;;;6.20;4.80;;;;;;;15.84;63.25;98262.16;106577;1278;22535;-76
2023/07/10 03:56:09;;;;;;;6.20;4.80;;;;;;;15.83;63.63;98258.62;106592;1278;22643;-76
2023/07/10 03:58:40;;;;;;;6.20;4.80;;;;;;;15.82;63.78;98254.52;106580;1277;26055;-76
2023/07/10 04:01:08;;;;;;;6.80;5.20;;;;;;;15.81;63.69;98254.87;106638;1278;22626;-76
2023/07/10 04:03:36;;;;;;;12.70;6.10;;;;;;;15.79;63.86;98254.30;106568;1278;26526;-75
2023/07/10 04:06:04;;;;;;;8.80;5.50;;;;;;;15.75;64.35;98247.70;106566;1278;24290;-75
2023/07/10 04:08:34;;;;;;;6.70;5.30;;;;;;;15.74;64.77;98247.52;106707;1278;22547;-76
2023/07/10 04:11:22;;;;;;;8.30;5.70;;;;;;;15.73;64.79;98243.96;106678;1278;22746;-76
2023/07/10 04:13:50;;;;;;;7.80;5.70;;;;;;;15.69;64.92;98245.98;106582;1278;22655;-74
2023/07/10 04:16:18;;;;;;;9.80;5.20;;;;;;;15.69;65.11;98245.91;106577;1278;25359;-75
2023/07/10 04:18:47;;;;;;;7.70;5.10;;;;;;;15.74;65.52;98243.48;106590;1278;25479;-76
2023/07/10 04:21:17;;;;;;;6.30;4.70;;;;;;;15.83;65.72;98242.60;106647;1278;26107;-75
2023/07/10 04:23:45;;;;;;;10.90;5.20;;;;;;;15.92;66.03;98242.95;106552;1278;22585;-76
2023/07/10 04:26:19;;;;;;;7.70;5.20;;;;;;;15.99;66.28;98235.19;106745;1277;24362;-75
2023/07/10 04:28:48;;;;;;;6.30;5.00;;;;;;;16.03;66.28;98237.70;106522;1278;24211;-75
2023/07/10 04:31:16;;;;;;;7.50;5.40;;;;;;;16.00;67.24;98242.29;106607;1278;22545;-75
2023/07/10 04:33:44;;;;;;;9.70;5.10;;;;;;;15.95;67.25;98245.02;106644;1278;22562;-76
2023/07/10 04:36:11;;;;;;;8.20;5.80;;;;;;;15.96;67.24;98245.15;106663;1278;25397;-75
2023/07/10 04:38:37;;;;;;;9.50;5.80;;;;;;;16.02;67.35;98242.37;106564;1277;22533;-74
2023/07/10 04:41:06;;;;;;;8.10;6.00;;;;;;;16.09;67.45;98241.80;106776;1277;22534;-75
2023/07/10 04:43:34;;;;;;;6.90;5.00;;;;;;;16.19;67.67;98245.79;106617;1278;180203;-75
2023/07/10 04:46:04;;;;;;;6.90;4.70;;;;;;;16.34;67.79;98246.54;106626;1278;25395;-75
2023/07/10 04:48:32;;;;;;;10.30;6.10;;;;;;;16.53;67.85;98249.27;106623;1277;22534;-75
2023/07/10 04:51:03;;;;;;;9.20;5.80;;;;;;;16.67;67.97;98244.14;106632;1278;25341;-75
2023/07/10 04:53:31;;;;;;;10.10;5.50;;;;;;;16.83;68.05;98247.05;106626;1278;22818;-75
2023/07/10 04:56:00;;;;;;;8.30;6.20;;;;;;;17.00;68.20;98246.16;106628;1278;22564;-75
2023/07/10 04:58:28;;;;;;;17.60;11.90;;;;;;;17.16;68.06;98245.95;106599;1278;22527;-76
2023/07/10 05:01:00;;;;;;;16.40;12.90;;;;;;;17.27;68.20;98247.20;106553;1277;22549;-77
2023/07/10 05:03:27;;;;;;;12.50;10.70;;;;;;;17.39;68.07;98250.73;106547;1277;22656;-76
2023/07/10 05:05:55;;;;;;;15.00;13.40;;;;;;;17.49;67.95;98255.36;106629;1278;23055;-75
2023/07/10 05:08:25;;;;;;;14.00;11.80;;;;;;;17.58;67.91;98259.42;106735;1277;22719;-75
2023/07/10 05:10:54;;;;;;;15.90;13.60;;;;;;;17.67;67.81;98262.15;106707;1277;22548;-76
2023/07/10 05:13:25;;;;;;;11.60;9.20;;;;;;;17.76;67.89;98266.30;106741;1277;22531;-75
2023/07/10 05:15:53;;;;;;;15.10;8.00;;;;;;;17.88;67.86;98262.44;106656;1266;22553;-75
2023/07/10 05:18:20;;;;;;;14.10;7.60;;;;;;;18.02;67.78;98267.25;106599;1277;22649;-74
2023/07/10 05:20:48;;;;;;;10.90;6.70;;;;;;;18.10;67.63;98272.12;106617;1278;23505;-75
2023/07/10 05:23:16;;;;;;;14.50;7.20;;;;;;;18.22;67.51;98270.94;106581;1278;22589;-76
2023/07/10 05:25:57;;;;;;;9.90;6.40;;;;;;;18.31;67.33;98272.48;106611;1278;22545;-76
2023/07/10 05:28:25;;;;;;;11.90;6.50;;;;;;;18.41;67.23;98272.49;106643;1277;22584;-76
2023/07/10 05:30:54;;;;;;;8.10;6.00;;;;;;;18.52;67.10;98269.67;106535;1267;22527;-76
2023/07/10 05:33:21;;;;;;;9.90;5.80;;;;;;;18.60;67.14;98276.39;106663;1277;25233;-75
2023/07/10 05:35:52;;;;;;;7.20;5.30;;;;;;;18.71;67.02;98278.28;106539;1278;22543;-75
2023/07/10 05:38:23;;;;;;;9.30;5.50;;;;;;;18.81;66.95;98281.59;106615;1278;22596;-76
2023/07/10 05:40:49;;;;;;;8.70;5.70;;;;;;;18.93;66.93;98281.45;106666;1278;25376;-76
2023/07/10 05:43:16;;;;;;;7.80;6.20;;;;;;;19.07;66.86;98278.38;106541;1278;22613;-75
2023/07/10 05:45:43;;;;;;;10.30;5.90;;;;;;;19.22;66.73;98275.47;106537;1278;25331;-75
2023/07/10 05:48:10;;;;;;;9.20;5.70;;;;;;;19.39;66.80;98273.13;106625;1277;22530;-75
2023/07/10 05:50:37;;;;;;;7.40;5.30;;;;;;;19.57;66.72;98273.31;106721;1275;25383;-75
2023/07/10 05:53:04;;;;;;;7.80;5.40;;;;;;;19.77;66.58;98277.16;106582;1278;25320;-75
2023/07/10 05:55:31;;;;;;;12.10;5.40;;;;;;;19.98;66.56;98274.50;106580;1278;22665;-75
2023/07/10 05:57:58;;;;;;;6.20;5.00;;;;;;;20.17;66.36;98269.75;106552;1278;22571;-75
2023/07/10 06:00:25;;;;;;;7.30;5.20;;;;;;;20.34;66.13;98268.20;106574;1278;25392;-76
2023/07/10 06:02:52;;;;;;;6.20;5.00;;;;;;;20.48;65.96;98264.23;106729;1277;22558;-76
2023/07/10 06:05:19;;;;;;;7.80;5.20;;;;;;;20.66;65.88;98261.48;106524;1278;22537;-76
2023/07/10 06:07:46;;;;;;;6.90;5.10;;;;;;;20.81;65.77;98263.23;106573;1260;25476;-76
2023/07/10 06:10:12;;;;;;;9.10;4.90;;;;;;;20.98;65.53;98263.27;106690;1278;25708;-75
2023/07/10 06:12:41;;;;;;;7.10;4.90;;;;;;;21.16;65.11;98261.16;106677;1277;25392;-75
2023/07/10 06:15:09;;;;;;;7.70;4.60;;;;;;;21.36;64.69;98268.16;106694;1278;22541;-76
2023/07/10 06:17:35;;;;;;;5.90;4.60;;;;;;;21.55;64.30;98265.19;106689;1278;24318;-75
2023/07/10 06:20:02;;;;;;;7.60;4.50;;;;;;;21.71;63.35;98261.88;106793;1277;23393;-76
2023/07/10 06:22:29;;;;;;;7.60;5.30;;;;;;;21.77;63.02;98262.92;106610;1278;22661;-75
2023/07/10 06:24:56;;;;;;;6.10;4.10;;;;;;;21.89;62.80;98266.03;106600;1278;23374;-76
2023/07/10 06:27:22;;;;;;;7.40;5.50;;;;;;;22.09;62.66;98264.73;106581;1278;22564;-77
2023/07/10 06:29:51;;;;;;;7.20;5.00;;;;;;;22.30;62.04;98263.95;106687;1277;25290;-76
2023/07/10 06:32:19;;;;;;;12.60;11.00;;;;;;;22.51;61.31;98250.62;106818;1278;22552;-77
2023/07/10 06:34:46;;;;;;;8.30;5.10;;;;;;;22.74;61.26;98255.11;106763;1278;23012;-77
2023/07/10 06:37:13;;;;;;;7.20;5.60;;;;;;;22.92;60.68;98255.38;106686;1278;23390;-76
2023/07/10 06:39:40;;;;;;;10.00;5.60;;;;;;;23.11;60.44;98256.35;106575;1277;25440;-76
2023/07/10 06:42:07;;;;;;;8.20;5.20;;;;;;;23.27;60.07;98255.00;106578;1278;25440;-76
2023/07/10 06:44:34;;;;;;;7.30;5.40;;;;;;;23.32;58.78;98257.17;106465;1277;22783;-76
2023/07/10 06:47:00;;;;;;;7.20;4.90;;;;;;;23.37;58.90;98258.25;106566;1278;26631;-76
2023/07/10 06:49:27;;;;;;;8.70;4.60;;;;;;;23.48;58.49;98261.05;106510;1278;25246;-76
2023/07/10 06:51:54;;;;;;;7.80;4.80;;;;;;;23.59;58.34;98257.80;106557;1277;23187;-76
2023/07/10 06:54:20;;;;;;;8.00;5.00;;;;;;;23.66;58.01;98255.42;106575;1278;25476;-76
2023/07/10 06:56:47;;;;;;;8.70;4.40;;;;;;;23.76;57.80;98248.73;106567;1255;24380;-75
2023/07/10 06:59:21;;;;;;;9.90;5.10;;;;;;;23.88;57.43;98242.39;106577;1278;23423;-75
2023/07/10 07:01:48;;;;;;;8.70;4.90;;;;;;;23.94;56.79;98232.40;106560;1278;23944;-75
2023/07/10 07:04:15;;;;;;;6.80;4.80;;;;;;;24.01;55.94;98231.52;106552;1277;24199;-75
2023/07/10 07:06:41;;;;;;;7.20;4.70;;;;;;;24.08;55.83;98232.89;106613;1278;22542;-75
2023/07/10 07:09:08;;;;;;;5.60;4.10;;;;;;;24.17;55.55;98231.40;106568;1277;22551;-75
2023/07/10 07:11:34;;;;;;;8.10;4.30;;;;;;;24.24;54.68;98234.13;106538;1267;22551;-76
2023/07/10 07:14:01;;;;;;;6.50;4.40;;;;;;;24.31;54.21;98234.58;106567;1278;25364;-75
2023/07/10 07:16:28;;;;;;;10.00;4.10;;;;;;;24.36;54.34;98236.28;106649;1277;22535;-76
2023/07/10 07:18:54;;;;;;;7.80;4.30;;;;;;;24.45;53.93;98237.40;106697;1277;25246;-75
2023/07/10 07:21:37;;;;;;;6.90;4.10;;;;;;;24.53;53.55;98238.94;106572;1278;22558;-75
2023/07/10 07:24:04;;;;;;;8.50;4.10;;;;;;;24.65;52.90;98243.83;106553;1278;22652;-75
2023/07/10 07:26:31;;;;;;;9.90;5.00;;;;;;;24.75;53.11;98235.77;106528;1277;22720;-76
2023/07/10 07:28:57;;;;;;;7.60;4.30;;;;;;;24.85;52.78;98235.83;106495;1278;22664;-76
2023/07/10 07:31:24;;;;;;;10.80;4.40;;;;;;;24.97;52.64;98232.52;106616;1278;22538;-75
2023/07/10 07:33:51;;;;;;;7.50;4.80;;;;;;;25.10;52.14;98232.02;106735;1278;22549;-75
2023/07/10 07:36:17;;;;;;;6.70;4.50;;;;;;;25.24;51.88;98232.66;106730;1278;25361;-74
2023/07/10 07:38:44;;;;;;;8.80;5.40;;;;;;;25.37;52.19;98233.09;106716;1277;22535;-75
2023/07/10 07:41:11;;;;;;;10.70;4.60;;;;;;;25.49;51.74;98231.48;106590;1277;22538;-76
2023/07/10 07:43:37;;;;;;;10.90;5.10;;;;;;;25.53;51.81;98234.02;106643;1278;26651;-76
2023/07/10 07:46:04;;;;;;;10.10;5.40;;;;;;;25.66;51.22;98234.36;106778;1278;24249;-77
2023/07/10 07:48:31;;;;;;;9.20;5.10;;;;;;;25.81;51.03;98235.10;106813;1278;25523;-76
2023/07/10 07:51:01;;;;;;;10.80;4.70;;;;;;;25.94;50.84;98225.84;106612;1278;26538;-76
2023/07/10 07:53:32;;;;;;;11.80;5.00;;;;;;;26.06;50.56;98227.50;106636;1278;22646;-76
2023/07/10 07:55:58;;;;;;;10.80;4.60;;;;;;;26.24;50.36;98229.00;106698;1278;25300;-75
2023/07/10 07:58:25;;;;;;;11.80;4.60;;;;;;;26.41;49.36;98228.27;106725;1278;25349;-75
2023/07/10 08:00:52;;;;;;;9.30;4.60;;;;;;;26.52;48.72;98230.73;106646;1278;22547;-75
2023/07/10 08:03:19;;;;;;;7.80;4.40;;;;;;;26.64;48.07;98222.91;106707;1278;22552;-75
2023/07/10 08:05:46;;;;;;;8.50;4.00;;;;;;;26.72;47.97;98220.05;106673;1277;25361;-75
2023/07/10 08:08:13;;;;;;;6.30;4.20;;;;;;;26.84;47.61;98221.67;106788;1277;25331;-75
2023/07/10 08:10:42;;;;;;;6.30;4.30;;;;;;;26.85;46.95;98222.38;106678;1277;22540;-76
2023/07/10 08:13:10;;;;;;;10.40;4.80;;;;;;;26.90;47.41;98226.71;106776;1270;22616;-75
2023/07/10 08:15:38;;;;;;;7.70;4.20;;;;;;;27.01;45.77;98225.48;106960;1278;23049;-76
2023/07/10 08:18:05;;;;;;;9.50;4.20;;;;;;;27.06;45.39;98219.16;106739;1278;25340;-75
2023/07/10 08:20:32;;;;;;;8.10;4.00;;;;;;;27.09;46.01;98214.73;106718;1277;24188;-76
2023/07/10 08:22:59;;;;;;;9.40;4.10;;;;;;;27.18;45.76;98215.88;106702;1278;22595;-75
2023/07/10 08:25:25;;;;;;;8.20;3.80;;;;;;;27.28;45.75;98211.19;106665;1277;24288;-76
2023/07/10 08:27:53;;;;;;;7.30;3.80;;;;;;;27.29;44.64;98211.48;106677;1278;22543;-77
2023/07/10 08:30:20;;;;;;;7.40;3.80;;;;;;;27.37;44.59;98208.85;106614;1277;25431;-76
2023/07/10 08:32:46;;;;;;;7.00;3.70;;;;;;;27.58;44.85;98208.56;106605;1277;25416;-77
2023/07/10 08:35:13;;;;;;;7.10;3.90;;;;;;;27.73;44.19;98208.56;106694;1277;22593;-76
2023/07/10 08:37:40;;;;;;;5.90;4.20;;;;;;;27.82;43.96;98205.28;106441;1277;22531;-76
2023/07/10 08:40:14;;;;;;;8.50;4.10;;;;;;;27.94;43.81;98209.08;106666;1277;24141;-76
2023/07/10 08:42:41;;;;;;;6.30;3.90;;;;;;;28.03;43.12;98207.50;106479;1278;23424;-75
2023/07/10 08:45:16;;;;;;;8.10;4.00;;;;;;;27.98;42.70;98204.06;106739;1266;24298;-76
2023/07/10 08:47:50;;;;;;;5.60;3.60;;;;;;;27.94;42.76;98203.92;106839;1278;25488;-75
2023/07/10 08:50:29;;;;;;;8.40;3.80;;;;;;;27.88;42.48;98200.80;106642;1277;22605;-75
2023/07/10 08:52:58;;;;;;;5.70;3.60;;;;;;;27.90;42.65;98201.66;106530;1277;25597;-76
2023/07/10 08:55:29;;;;;;;9.10;3.40;;;;;;;28.07;42.43;98203.42;106546;1277;25429;-76
2023/07/10 08:58:00;;;;;;;7.40;3.90;;;;;;;28.22;41.93;98202.67;106455;1277;22570;-76
2023/07/10 09:00:36;;;;;;;5.80;3.80;;;;;;;28.28;41.36;98197.95;106506;1260;22531;-76
2023/07/10 09:03:33;;;;;;;7.50;4.20;;;;;;;28.18;40.72;98199.70;106560;1277;24257;-76
2023/07/10 09:06:03;;;;;;;6.60;4.00;;;;;;;28.14;41.18;98201.70;106553;1277;25715;-76
2023/07/10 09:08:32;;;;;;;7.50;3.80;;;;;;;28.28;41.55;98205.86;106640;1278;22536;-76
2023/07/10 09:11:03;;;;;;;8.60;3.60;;;;;;;28.46;41.41;98207.07;106553;1277;22541;-75
2023/07/10 09:13:46;;;;;;;7.40;3.60;;;;;;;28.58;41.34;98202.52;106458;1278;24101;-76
2023/07/10 09:16:19;;;;;;;8.00;3.60;;;;;;;28.78;41.12;98203.34;106667;1277;22546;-77
2023/07/10 09:18:52;;;;;;;8.20;3.60;;;;;;;28.97;40.50;98199.95;106621;1278;22516;-76
2023/07/10 09:21:21;;;;;;;7.50;3.10;;;;;;;29.17;40.37;98200.98;106568;1277;22593;-77
2023/07/10 09:23:48;;;;;;;7.30;3.40;;;;;;;29.32;40.17;98197.70;106587;1277;22534;-76
2023/07/10 09:26:22;;;;;;;7.40;3.70;;;;;;;29.45;39.91;98202.45;106538;1277;25511;-77
2023/07/10 09:29:27;;;;;;;7.50;3.60;;;;;;;29.62;39.64;98205.16;106588;1277;22612;-76
2023/07/10 09:32:13;;;;;;;5.50;3.40;;;;;;;29.89;39.34;98200.34;106385;1277;24371;-76
2023/07/10 09:34:45;;;;;;;4.90;3.40;;;;;;;30.02;38.74;98199.57;106679;1277;25367;-75
2023/07/10 09:37:16;;;;;;;5.10;3.40;;;;;;;30.12;38.35;98193.68;106543;1277;24202;-75
2023/07/10 09:39:42;;;;;;;6.10;3.60;;;;;;;30.24;37.64;98190.58;106515;1277;25586;-76
2023/07/10 09:42:16;;;;;;;5.70;3.50;;;;;;;30.19;36.95;98186.83;106651;1277;22531;-77
2023/07/10 09:45:00;;;;;;;9.40;3.40;;;;;;;30.20;37.60;98185.94;106458;1278;23502;-76
2023/07/10 09:47:39;;;;;;;5.60;3.30;;;;;;;30.41;37.68;98185.02;106529;1277;23258;-76
2023/07/10 09:50:14;;;;;;;9.70;4.10;;;;;;;30.69;37.00;98184.43;106554;1277;25456;-76
2023/07/10 09:52:42;;;;;;;18.70;4.30;;;;;;;30.76;36.54;98183.27;106551;1277;26530;-76
2023/07/10 09:55:13;;;;;;;8.80;4.00;;;;;;;30.70;35.87;98182.97;106538;1277;25291;-75
2023/07/10 09:58:02;;;;;;;8.40;3.70;;;;;;;30.49;35.26;98184.73;106509;1277;25228;-76
2023/07/10 10:00:30;;;;;;;7.60;3.80;;;;;;;30.23;35.06;98185.73;106497;1278;25331;-75
2023/07/10 10:03:08;;;;;;;7.30;3.30;;;;;;;30.01;35.55;98185.85;106505;1277;22664;-76
2023/07/10 10:05:41;;;;;;;6.40;3.50;;;;;;;29.86;34.34;98185.45;106499;1278;22609;-76
2023/07/10 10:08:19;;;;;;;7.80;3.70;;;;;;;29.67;34.84;98185.98;106504;1277;23017;-75
2023/07/10 10:11:09;;;;;;;9.50;4.30;;;;;;;29.78;35.43;98183.43;106452;1278;22540;-76
2023/07/10 10:13:43;;;;;;;8.90;4.20;;;;;;;30.04;35.07;98185.71;106497;1277;24285;-75
2023/07/10 10:16:16;;;;;;;6.70;4.80;;;;;;;30.05;35.43;98181.25;106610;1267;24378;-76
2023/07/10 10:18:49;;;;;;;9.90;4.10;;;;;;;30.28;35.32;98179.52;106515;1277;25291;-77
2023/07/10 10:21:20;;;;;;;5.90;4.00;;;;;;;30.52;35.20;98179.28;106605;1277;24089;-78
2023/07/10 10:23:49;;;;;;;8.30;3.80;;;;;;;30.73;35.08;98180.48;106719;1277;22549;-77
2023/07/10 10:26:42;;;;;;;9.80;4.40;;;;;;;30.77;33.03;98176.89;106741;1277;22550;-76
2023/07/10 10:29:30;;;;;;;5.60;3.60;;;;;;;30.83;31.68;98172.52;106516;1277;24206;-76
2023/07/10 10:32:05;;;;;;;7.30;3.80;;;;;;;30.65;29.89;98172.20;106557;1277;24251;-76
2023/07/10 10:35:11;;;;;;;9.50;6.50;;;;;;;30.57;30.11;98174.98;106594;1277;22696;-76
2023/07/10 10:37:50;;;;;;;8.30;4.50;;;;;;;30.73;30.43;98171.73;106352;1278;24356;-76
2023/07/10 10:40:29;;;;;;;14.10;6.70;;;;;;;30.87;29.37;98167.26;106616;1277;22554;-76
2023/07/10 10:43:11;;;;;;;10.40;5.70;;;;;;;30.97;28.58;98173.10;106418;1278;23658;-76
2023/07/10 10:45:46;;;;;;;9.10;5.10;;;;;;;30.89;26.60;98161.66;106534;1278;25284;-75
2023/07/10 10:48:41;;;;;;;8.10;5.40;;;;;;;30.67;27.29;98158.48;106600;1277;22629;-77
2023/07/10 10:51:13;;;;;;;9.40;4.60;;;;;;;30.67;26.36;98163.56;106660;1277;25415;-76
2023/07/10 10:53:47;;;;;;;10.00;4.30;;;;;;;30.56;26.26;98162.27;106702;1277;24428;-76
2023/07/10 10:56:36;;;;;;;6.00;4.10;;;;;;;30.39;25.93;98153.45;106494;1278;22638;-76
2023/07/10 10:59:08;;;;;;;5.60;3.80;;;;;;;30.09;25.89;98152.54;106497;1277;24219;-77
2023/07/10 11:01:48;;;;;;;9.60;4.10;;;;;;;29.83;26.05;98155.09;106505;1277;24363;-76
2023/07/10 11:04:20;;;;;;;5.40;3.70;;;;;;;29.73;26.32;98156.30;106526;1278;22636;-76
2023/07/10 11:07:06;;;;;;;7.00;3.60;;;;;;;29.86;27.18;98156.64;106510;1254;25320;-76
2023/07/10 11:09:39;;;;;;;6.10;4.00;;;;;;;30.01;26.38;98154.33;106718;1277;22535;-76
2023/07/10 11:12:15;;;;;;;7.30;4.00;;;;;;;29.86;26.24;98160.45;106740;1277;24367;-76
2023/07/10 11:14:44;;;;;;;9.90;4.30;;;;;;;29.69;26.74;98163.17;106672;1277;22836;-76
2023/07/10 11:17:14;;;;;;;5.70;4.20;;;;;;;29.50;27.30;98161.70;106653;1277;22705;-77
2023/07/10 11:19:41;;;;;;;8.90;3.80;;;;;;;29.39;27.43;98161.94;106549;1277;22647;-76
2023/07/10 11:22:25;;;;;;;6.20;3.90;;;;;;;29.31;27.40;98158.00;106478;1277;25498;-76
2023/07/10 11:24:52;;;;;;;8.00;3.70;;;;;;;29.32;27.37;98159.56;106523;1277;23484;-77
2023/07/10 11:27:27;;;;;;;5.20;4.30;;;;;;;29.34;28.27;98162.47;106543;1277;22610;-76
2023/07/10 11:30:07;;;;;;;5.80;4.20;;;;;;;29.36;28.55;98157.84;106542;1277;22632;-76
2023/07/10 11:32:55;;;;;;;8.20;3.70;;;;;;;29.53;29.14;98153.86;106543;1277;22661;-76
2023/07/10 11:35:23;;;;;;;8.90;4.20;;;;;;;29.78;29.22;98148.27;106505;1277;25511;-76
2023/07/10 11:37:50;;;;;;;8.80;4.10;;;;;;;29.87;29.32;98142.50;106560;1277;22652;-77
2023/07/10 11:40:28;;;;;;;5.70;4.00;;;;;;;29.91;29.01;98141.40;107287;1277;22737;-77